sensor_id;sensor_type;location;lat;lon;timestamp;temperature;humidity
35920;DHT22;36160;53.370;-6.196;2022-09-12T00:00:29;17.80;99.90
35920;DHT22;36160;53.370;-6.196;2022-09-12T00:02:58;17.90;99.90
35920;DHT22;36160;53.370;-6.196;2022-09-12T00:05:25;17.80;99.90
35920;DHT22;36160;53.370;-6.196;2022-09-12T00:07:51;17.90;99.90
35920;DHT22;36160;53.370;-6.196;2022-09-12T00:10:17;17.90;99.90
35920;DHT22;36160;53.370;-6.196;2022-09-12T00:12:42;17.80;99.90
35920;DHT22;36160;53.370;-6.196;2022-09-12T00:15:09;17.70;99.90
35920;DHT22;36160;53.370;-6.196;2022-09-12T00:17:36;17.80;99.90
35920;DHT22;36160;53.370;-6.196;2022-09-12T00:20:04;17.80;99.90
35920;DHT22;36160;53.370;-6.196;2022-09-12T00:22:31;17.70;99.90
35920;DHT22;36160;53.370;-6.196;2022-09-12T00:24:57;17.80;99.90
35920;DHT22;36160;53.370;-6.196;2022-09-12T00:27:23;17.80;99.90
35920;DHT22;36160;53.370;-6.196;2022-09-12T00:29:48;17.80;99.90
35920;DHT22;36160;53.370;-6.196;2022-09-12T00:32:14;17.80;99.90
35920;DHT22;36160;53.370;-6.196;2022-09-12T00:34:40;17.80;99.90
35920;DHT22;36160;53.370;-6.196;2022-09-12T00:37:05;17.80;99.90
35920;DHT22;36160;53.370;-6.196;2022-09-12T00:39:31;17.80;99.90
35920;DHT22;36160;53.370;-6.196;2022-09-12T00:41:57;17.80;99.90
35920;DHT22;36160;53.370;-6.196;2022-09-12T00:47:12;17.80;99.90
35920;DHT22;36160;53.370;-6.196;2022-09-12T00:49:54;18.00;99.90
35920;DHT22;36160;53.370;-6.196;2022-09-12T00:55:12;17.90;99.90
35920;DHT22;36160;53.370;-6.196;2022-09-12T00:58:08;17.80;99.90
35920;DHT22;36160;53.370;-6.196;2022-09-12T01:00:35;18.00;99.90
35920;DHT22;36160;53.370;-6.196;2022-09-12T01:03:11;18.00;99.90
35920;DHT22;36160;53.370;-6.196;2022-09-12T01:05:52;17.90;99.90
35920;DHT22;36160;53.370;-6.196;2022-09-12T01:08:22;18.00;99.90
35920;DHT22;36160;53.370;-6.196;2022-09-12T01:10:49;17.90;99.90
35920;DHT22;36160;53.370;-6.196;2022-09-12T01:13:15;17.80;99.90
35920;DHT22;36160;53.370;-6.196;2022-09-12T01:15:40;17.80;99.90
35920;DHT22;36160;53.370;-6.196;2022-09-12T01:18:12;17.90;99.90
35920;DHT22;36160;53.370;-6.196;2022-09-12T01:32:34;17.70;99.90
35920;DHT22;36160;53.370;-6.196;2022-09-12T01:40:23;17.60;99.90
35920;DHT22;36160;53.370;-6.196;2022-09-12T01:43:02;17.70;99.90
35920;DHT22;36160;53.370;-6.196;2022-09-12T01:50:48;17.80;99.90
35920;DHT22;36160;53.370;-6.196;2022-09-12T01:53:37;17.70;99.90
35920;DHT22;36160;53.370;-6.196;2022-09-12T01:56:12;17.80;99.90
35920;DHT22;36160;53.370;-6.196;2022-09-12T01:58:53;17.60;99.90
35920;DHT22;36160;53.370;-6.196;2022-09-12T02:01:27;17.70;99.90
35920;DHT22;36160;53.370;-6.196;2022-09-12T02:04:08;17.60;99.90
35920;DHT22;36160;53.370;-6.196;2022-09-12T02:06:46;17.60;99.90
35920;DHT22;36160;53.370;-6.196;2022-09-12T02:09:32;17.70;99.90
35920;DHT22;36160;53.370;-6.196;2022-09-12T02:12:00;17.60;99.90
35920;DHT22;36160;53.370;-6.196;2022-09-12T02:14:31;17.60;99.90
35920;DHT22;36160;53.370;-6.196;2022-09-12T02:17:11;17.70;99.90
35920;DHT22;36160;53.370;-6.196;2022-09-12T02:19:47;17.70;99.90
35920;DHT22;36160;53.370;-6.196;2022-09-12T02:22:18;17.50;99.90
35920;DHT22;36160;53.370;-6.196;2022-09-12T02:24:48;17.50;99.90
35920;DHT22;36160;53.370;-6.196;2022-09-12T02:27:19;17.70;99.90
35920;DHT22;36160;53.370;-6.196;2022-09-12T02:29:46;17.50;99.90
35920;DHT22;36160;53.370;-6.196;2022-09-12T02:32:29;17.50;99.90
35920;DHT22;36160;53.370;-6.196;2022-09-12T02:38:32;17.70;99.90
35920;DHT22;36160;53.370;-6.196;2022-09-12T02:41:00;17.60;99.90
35920;DHT22;36160;53.370;-6.196;2022-09-12T02:43:25;17.60;99.90
35920;DHT22;36160;53.370;-6.196;2022-09-12T02:45:52;17.70;99.90
35920;DHT22;36160;53.370;-6.196;2022-09-12T02:48:30;17.70;99.90
35920;DHT22;36160;53.370;-6.196;2022-09-12T02:50:57;17.60;99.90
35920;DHT22;36160;53.370;-6.196;2022-09-12T02:53:25;17.80;99.90
35920;DHT22;36160;53.370;-6.196;2022-09-12T02:55:51;17.70;99.90
35920;DHT22;36160;53.370;-6.196;2022-09-12T02:58:22;17.50;99.90
35920;DHT22;36160;53.370;-6.196;2022-09-12T03:00:55;17.70;99.90
35920;DHT22;36160;53.370;-6.196;2022-09-12T03:06:40;17.40;99.90
35920;DHT22;36160;53.370;-6.196;2022-09-12T03:09:20;17.50;99.90
35920;DHT22;36160;53.370;-6.196;2022-09-12T03:12:14;17.30;99.90
35920;DHT22;36160;53.370;-6.196;2022-09-12T03:20:18;17.40;99.90
35920;DHT22;36160;53.370;-6.196;2022-09-12T03:22:53;17.30;99.90
35920;DHT22;36160;53.370;-6.196;2022-09-12T03:25:35;17.40;99.90
35920;DHT22;36160;53.370;-6.196;2022-09-12T03:28:04;17.30;99.90
35920;DHT22;36160;53.370;-6.196;2022-09-12T03:30:52;17.30;99.90
35920;DHT22;36160;53.370;-6.196;2022-09-12T03:33:23;17.30;99.90
35920;DHT22;36160;53.370;-6.196;2022-09-12T03:35:50;17.20;99.90
35920;DHT22;36160;53.370;-6.196;2022-09-12T03:38:16;17.20;99.90
35920;DHT22;36160;53.370;-6.196;2022-09-12T03:40:42;17.40;99.90
35920;DHT22;36160;53.370;-6.196;2022-09-12T03:43:09;17.30;99.90
35920;DHT22;36160;53.370;-6.196;2022-09-12T03:45:35;17.30;99.90
35920;DHT22;36160;53.370;-6.196;2022-09-12T03:48:02;17.20;99.90
35920;DHT22;36160;53.370;-6.196;2022-09-12T03:50:28;17.30;99.90
35920;DHT22;36160;53.370;-6.196;2022-09-12T03:52:54;17.40;99.90
35920;DHT22;36160;53.370;-6.196;2022-09-12T03:55:20;17.50;99.90
35920;DHT22;36160;53.370;-6.196;2022-09-12T03:57:46;17.50;99.90
35920;DHT22;36160;53.370;-6.196;2022-09-12T04:00:12;17.50;99.90
35920;DHT22;36160;53.370;-6.196;2022-09-12T04:02:37;17.50;99.90
35920;DHT22;36160;53.370;-6.196;2022-09-12T04:05:04;17.50;99.90
35920;DHT22;36160;53.370;-6.196;2022-09-12T04:07:29;17.40;99.90
35920;DHT22;36160;53.370;-6.196;2022-09-12T04:09:55;17.40;99.90
35920;DHT22;36160;53.370;-6.196;2022-09-12T04:12:21;17.60;99.90
35920;DHT22;36160;53.370;-6.196;2022-09-12T04:14:47;17.40;99.90
35920;DHT22;36160;53.370;-6.196;2022-09-12T04:17:13;17.40;99.90
35920;DHT22;36160;53.370;-6.196;2022-09-12T04:19:39;17.60;99.90
35920;DHT22;36160;53.370;-6.196;2022-09-12T04:22:05;17.40;99.90
35920;DHT22;36160;53.370;-6.196;2022-09-12T04:24:31;17.60;99.90
35920;DHT22;36160;53.370;-6.196;2022-09-12T04:26:56;17.50;99.90
35920;DHT22;36160;53.370;-6.196;2022-09-12T04:29:22;17.40;99.90
35920;DHT22;36160;53.370;-6.196;2022-09-12T04:31:48;17.30;99.90
35920;DHT22;36160;53.370;-6.196;2022-09-12T04:34:13;17.40;99.90
35920;DHT22;36160;53.370;-6.196;2022-09-12T04:36:40;17.20;99.90
35920;DHT22;36160;53.370;-6.196;2022-09-12T04:39:06;17.20;99.90
35920;DHT22;36160;53.370;-6.196;2022-09-12T04:41:35;16.90;99.90
35920;DHT22;36160;53.370;-6.196;2022-09-12T04:44:04;16.80;99.90
35920;DHT22;36160;53.370;-6.196;2022-09-12T04:46:33;16.80;99.90
35920;DHT22;36160;53.370;-6.196;2022-09-12T04:48:59;16.80;99.90
35920;DHT22;36160;53.370;-6.196;2022-09-12T04:51:27;16.80;99.90
35920;DHT22;36160;53.370;-6.196;2022-09-12T04:53:56;16.70;99.90
35920;DHT22;36160;53.370;-6.196;2022-09-12T04:56:23;16.60;99.90
35920;DHT22;36160;53.370;-6.196;2022-09-12T04:58:49;16.70;99.90
35920;DHT22;36160;53.370;-6.196;2022-09-12T05:01:17;16.60;99.90
35920;DHT22;36160;53.370;-6.196;2022-09-12T05:03:43;16.50;99.90
35920;DHT22;36160;53.370;-6.196;2022-09-12T05:06:15;16.40;99.90
35920;DHT22;36160;53.370;-6.196;2022-09-12T05:08:41;16.60;99.90
35920;DHT22;36160;53.370;-6.196;2022-09-12T05:11:10;16.40;99.90
35920;DHT22;36160;53.370;-6.196;2022-09-12T05:13:37;16.50;99.90
35920;DHT22;36160;53.370;-6.196;2022-09-12T05:16:04;16.40;99.90
35920;DHT22;36160;53.370;-6.196;2022-09-12T05:18:32;16.40;99.90
35920;DHT22;36160;53.370;-6.196;2022-09-12T05:20:58;16.30;99.90
35920;DHT22;36160;53.370;-6.196;2022-09-12T05:23:25;16.40;99.90
35920;DHT22;36160;53.370;-6.196;2022-09-12T05:25:53;16.40;99.90
35920;DHT22;36160;53.370;-6.196;2022-09-12T05:28:19;16.50;99.90
35920;DHT22;36160;53.370;-6.196;2022-09-12T05:30:45;16.40;99.90
35920;DHT22;36160;53.370;-6.196;2022-09-12T05:33:11;16.30;99.90
35920;DHT22;36160;53.370;-6.196;2022-09-12T05:35:37;16.50;99.90
35920;DHT22;36160;53.370;-6.196;2022-09-12T05:38:05;16.40;99.90
35920;DHT22;36160;53.370;-6.196;2022-09-12T05:40:31;16.60;99.90
35920;DHT22;36160;53.370;-6.196;2022-09-12T05:42:57;16.40;99.90
35920;DHT22;36160;53.370;-6.196;2022-09-12T05:45:23;16.40;99.90
35920;DHT22;36160;53.370;-6.196;2022-09-12T05:47:49;16.50;99.90
35920;DHT22;36160;53.370;-6.196;2022-09-12T05:50:15;16.60;99.90
35920;DHT22;36160;53.370;-6.196;2022-09-12T05:52:40;16.60;99.90
35920;DHT22;36160;53.370;-6.196;2022-09-12T05:55:06;16.40;99.90
35920;DHT22;36160;53.370;-6.196;2022-09-12T05:57:32;16.60;99.90
35920;DHT22;36160;53.370;-6.196;2022-09-12T05:59:58;16.60;99.90
35920;DHT22;36160;53.370;-6.196;2022-09-12T06:02:24;16.60;99.90
35920;DHT22;36160;53.370;-6.196;2022-09-12T06:04:49;16.60;99.90
35920;DHT22;36160;53.370;-6.196;2022-09-12T06:07:15;16.60;99.90
35920;DHT22;36160;53.370;-6.196;2022-09-12T06:09:41;16.60;99.90
35920;DHT22;36160;53.370;-6.196;2022-09-12T06:12:06;16.60;99.90
35920;DHT22;36160;53.370;-6.196;2022-09-12T06:14:33;16.50;99.90
35920;DHT22;36160;53.370;-6.196;2022-09-12T06:16:59;16.50;99.90
35920;DHT22;36160;53.370;-6.196;2022-09-12T06:19:24;16.50;99.90
35920;DHT22;36160;53.370;-6.196;2022-09-12T06:21:52;16.60;99.90
35920;DHT22;36160;53.370;-6.196;2022-09-12T06:24:19;16.60;99.90
35920;DHT22;36160;53.370;-6.196;2022-09-12T06:26:46;16.60;99.90
35920;DHT22;36160;53.370;-6.196;2022-09-12T06:29:13;16.60;99.90
35920;DHT22;36160;53.370;-6.196;2022-09-12T06:31:40;16.70;99.90
35920;DHT22;36160;53.370;-6.196;2022-09-12T06:34:08;16.70;99.90
35920;DHT22;36160;53.370;-6.196;2022-09-12T06:36:45;16.70;99.90
35920;DHT22;36160;53.370;-6.196;2022-09-12T06:39:16;16.70;99.90
35920;DHT22;36160;53.370;-6.196;2022-09-12T06:41:42;16.60;99.90
35920;DHT22;36160;53.370;-6.196;2022-09-12T06:44:19;16.70;99.90
35920;DHT22;36160;53.370;-6.196;2022-09-12T06:46:45;16.80;99.90
35920;DHT22;36160;53.370;-6.196;2022-09-12T06:49:11;16.80;99.90
35920;DHT22;36160;53.370;-6.196;2022-09-12T06:51:37;16.80;99.90
35920;DHT22;36160;53.370;-6.196;2022-09-12T06:54:03;16.80;99.90
35920;DHT22;36160;53.370;-6.196;2022-09-12T06:56:30;16.90;99.90
35920;DHT22;36160;53.370;-6.196;2022-09-12T06:58:57;16.90;99.90
35920;DHT22;36160;53.370;-6.196;2022-09-12T07:01:28;16.70;99.90
35920;DHT22;36160;53.370;-6.196;2022-09-12T07:03:59;16.90;99.90
35920;DHT22;36160;53.370;-6.196;2022-09-12T07:06:29;16.80;99.90
35920;DHT22;36160;53.370;-6.196;2022-09-12T07:09:02;16.90;99.90
35920;DHT22;36160;53.370;-6.196;2022-09-12T07:11:35;16.90;99.90
35920;DHT22;36160;53.370;-6.196;2022-09-12T07:14:03;16.90;99.90
35920;DHT22;36160;53.370;-6.196;2022-09-12T07:16:29;17.00;99.90
35920;DHT22;36160;53.370;-6.196;2022-09-12T07:18:57;17.00;99.90
35920;DHT22;36160;53.370;-6.196;2022-09-12T07:21:23;17.00;99.90
35920;DHT22;36160;53.370;-6.196;2022-09-12T07:23:49;17.00;99.90
35920;DHT22;36160;53.370;-6.196;2022-09-12T07:26:16;17.10;99.90
35920;DHT22;36160;53.370;-6.196;2022-09-12T07:28:42;17.30;99.90
35920;DHT22;36160;53.370;-6.196;2022-09-12T07:31:09;17.20;99.90
35920;DHT22;36160;53.370;-6.196;2022-09-12T07:33:36;17.20;99.90
35920;DHT22;36160;53.370;-6.196;2022-09-12T07:36:11;17.50;99.90
35920;DHT22;36160;53.370;-6.196;2022-09-12T07:38:38;17.50;99.90
35920;DHT22;36160;53.370;-6.196;2022-09-12T07:41:31;17.50;99.90
35920;DHT22;36160;53.370;-6.196;2022-09-12T07:43:59;17.60;99.90
35920;DHT22;36160;53.370;-6.196;2022-09-12T07:46:27;17.50;99.90
35920;DHT22;36160;53.370;-6.196;2022-09-12T07:48:55;17.60;99.90
35920;DHT22;36160;53.370;-6.196;2022-09-12T07:51:22;17.50;99.90
35920;DHT22;36160;53.370;-6.196;2022-09-12T07:53:49;17.40;99.90
35920;DHT22;36160;53.370;-6.196;2022-09-12T07:56:16;17.40;99.90
35920;DHT22;36160;53.370;-6.196;2022-09-12T07:58:43;17.40;99.90
35920;DHT22;36160;53.370;-6.196;2022-09-12T08:01:10;17.40;99.90
35920;DHT22;36160;53.370;-6.196;2022-09-12T08:03:38;17.50;99.90
35920;DHT22;36160;53.370;-6.196;2022-09-12T08:06:09;17.50;99.90
35920;DHT22;36160;53.370;-6.196;2022-09-12T08:08:35;17.60;99.90
35920;DHT22;36160;53.370;-6.196;2022-09-12T08:11:03;17.50;99.90
35920;DHT22;36160;53.370;-6.196;2022-09-12T08:13:31;17.60;99.90
35920;DHT22;36160;53.370;-6.196;2022-09-12T08:16:03;17.70;99.90
35920;DHT22;36160;53.370;-6.196;2022-09-12T08:18:31;17.70;99.90
35920;DHT22;36160;53.370;-6.196;2022-09-12T08:21:01;17.60;99.90
35920;DHT22;36160;53.370;-6.196;2022-09-12T08:23:28;17.80;99.90
35920;DHT22;36160;53.370;-6.196;2022-09-12T08:25:57;17.80;99.90
35920;DHT22;36160;53.370;-6.196;2022-09-12T08:28:26;18.00;99.90
35920;DHT22;36160;53.370;-6.196;2022-09-12T08:30:53;17.90;99.90
35920;DHT22;36160;53.370;-6.196;2022-09-12T08:33:20;18.00;99.90
35920;DHT22;36160;53.370;-6.196;2022-09-12T08:35:46;17.90;99.90
35920;DHT22;36160;53.370;-6.196;2022-09-12T08:38:12;18.00;99.90
35920;DHT22;36160;53.370;-6.196;2022-09-12T08:40:54;18.00;99.90
35920;DHT22;36160;53.370;-6.196;2022-09-12T08:46:34;17.90;99.90
35920;DHT22;36160;53.370;-6.196;2022-09-12T08:49:02;18.00;99.90
35920;DHT22;36160;53.370;-6.196;2022-09-12T08:51:30;18.00;99.90
35920;DHT22;36160;53.370;-6.196;2022-09-12T08:54:00;18.00;99.90
35920;DHT22;36160;53.370;-6.196;2022-09-12T08:56:28;17.90;99.90
35920;DHT22;36160;53.370;-6.196;2022-09-12T08:58:56;17.90;99.90
35920;DHT22;36160;53.370;-6.196;2022-09-12T09:01:42;17.90;99.90
35920;DHT22;36160;53.370;-6.196;2022-09-12T09:04:47;18.00;99.90
35920;DHT22;36160;53.370;-6.196;2022-09-12T09:10:43;18.00;99.90
35920;DHT22;36160;53.370;-6.196;2022-09-12T09:13:45;17.80;99.90
35920;DHT22;36160;53.370;-6.196;2022-09-12T09:16:40;17.90;99.90
35920;DHT22;36160;53.370;-6.196;2022-09-12T09:19:19;18.00;99.90
35920;DHT22;36160;53.370;-6.196;2022-09-12T09:22:03;18.00;99.90
35920;DHT22;36160;53.370;-6.196;2022-09-12T09:24:41;18.30;99.90
35920;DHT22;36160;53.370;-6.196;2022-09-12T09:29:56;18.20;99.90
35920;DHT22;36160;53.370;-6.196;2022-09-12T09:32:27;18.40;99.90
35920;DHT22;36160;53.370;-6.196;2022-09-12T09:34:54;18.50;99.90
35920;DHT22;36160;53.370;-6.196;2022-09-12T09:37:42;18.30;99.90
35920;DHT22;36160;53.370;-6.196;2022-09-12T09:40:31;18.50;99.90
35920;DHT22;36160;53.370;-6.196;2022-09-12T09:43:09;18.40;99.90
35920;DHT22;36160;53.370;-6.196;2022-09-12T09:45:39;18.30;99.90
35920;DHT22;36160;53.370;-6.196;2022-09-12T09:48:26;18.40;99.90
35920;DHT22;36160;53.370;-6.196;2022-09-12T09:50:57;18.20;99.90
35920;DHT22;36160;53.370;-6.196;2022-09-12T09:56:14;18.10;99.90
35920;DHT22;36160;53.370;-6.196;2022-09-12T09:58:44;18.20;99.90
35920;DHT22;36160;53.370;-6.196;2022-09-12T10:01:17;18.10;99.90
35920;DHT22;36160;53.370;-6.196;2022-09-12T10:03:51;18.10;99.90
35920;DHT22;36160;53.370;-6.196;2022-09-12T10:06:21;18.10;99.90
35920;DHT22;36160;53.370;-6.196;2022-09-12T10:08:49;18.10;99.90
35920;DHT22;36160;53.370;-6.196;2022-09-12T10:13:55;18.30;99.90
35920;DHT22;36160;53.370;-6.196;2022-09-12T10:16:31;18.40;99.90
35920;DHT22;36160;53.370;-6.196;2022-09-12T10:18:59;18.40;99.90
35920;DHT22;36160;53.370;-6.196;2022-09-12T10:26:52;18.30;99.90
35920;DHT22;36160;53.370;-6.196;2022-09-12T10:29:26;18.30;99.90
35920;DHT22;36160;53.370;-6.196;2022-09-12T10:31:55;18.20;99.90
35920;DHT22;36160;53.370;-6.196;2022-09-12T10:34:35;18.40;99.90
35920;DHT22;36160;53.370;-6.196;2022-09-12T10:37:07;18.30;99.90
35920;DHT22;36160;53.370;-6.196;2022-09-12T10:39:35;18.10;99.90
35920;DHT22;36160;53.370;-6.196;2022-09-12T10:42:03;18.20;99.90
35920;DHT22;36160;53.370;-6.196;2022-09-12T10:44:32;18.10;99.90
35920;DHT22;36160;53.370;-6.196;2022-09-12T10:46:59;18.20;99.90
35920;DHT22;36160;53.370;-6.196;2022-09-12T10:49:30;18.20;99.90
35920;DHT22;36160;53.370;-6.196;2022-09-12T10:52:22;18.10;99.90
35920;DHT22;36160;53.370;-6.196;2022-09-12T10:54:51;18.20;99.90
35920;DHT22;36160;53.370;-6.196;2022-09-12T10:57:53;18.20;99.90
35920;DHT22;36160;53.370;-6.196;2022-09-12T11:00:13;18.30;99.90
35920;DHT22;36160;53.370;-6.196;2022-09-12T11:11:01;18.40;99.90
35920;DHT22;36160;53.370;-6.196;2022-09-12T11:13:50;18.60;99.90
35920;DHT22;36160;53.370;-6.196;2022-09-12T11:38:07;18.50;99.90
35920;DHT22;36160;53.370;-6.196;2022-09-12T11:40:46;18.60;99.90
35920;DHT22;36160;53.370;-6.196;2022-09-12T11:55:01;18.40;99.90
35920;DHT22;36160;53.370;-6.196;2022-09-12T11:57:49;18.70;99.90
35920;DHT22;36160;53.370;-6.196;2022-09-12T12:00:40;18.10;99.90
35920;DHT22;36160;53.370;-6.196;2022-09-12T12:05:52;18.20;99.90
35920;DHT22;36160;53.370;-6.196;2022-09-12T12:08:21;18.20;99.90
35920;DHT22;36160;53.370;-6.196;2022-09-12T12:10:52;18.30;99.90
35920;DHT22;36160;53.370;-6.196;2022-09-12T12:13:21;18.10;99.90
35920;DHT22;36160;53.370;-6.196;2022-09-12T12:15:55;18.20;99.90
35920;DHT22;36160;53.370;-6.196;2022-09-12T12:18:24;18.50;99.90
35920;DHT22;36160;53.370;-6.196;2022-09-12T12:20:52;18.40;99.90
35920;DHT22;36160;53.370;-6.196;2022-09-12T12:23:28;18.40;99.90
35920;DHT22;36160;53.370;-6.196;2022-09-12T12:25:56;18.30;99.90
35920;DHT22;36160;53.370;-6.196;2022-09-12T12:31:06;18.40;99.90
35920;DHT22;36160;53.370;-6.196;2022-09-12T12:43:44;18.40;99.90
35920;DHT22;36160;53.370;-6.196;2022-09-12T12:46:18;18.20;99.90
35920;DHT22;36160;53.370;-6.196;2022-09-12T12:49:07;18.30;99.90
35920;DHT22;36160;53.370;-6.196;2022-09-12T12:51:45;18.10;99.90
35920;DHT22;36160;53.370;-6.196;2022-09-12T12:54:49;18.20;99.90
35920;DHT22;36160;53.370;-6.196;2022-09-12T12:57:25;18.10;99.90
35920;DHT22;36160;53.370;-6.196;2022-09-12T12:59:52;18.10;99.90
35920;DHT22;36160;53.370;-6.196;2022-09-12T13:04:58;18.30;99.90
35920;DHT22;36160;53.370;-6.196;2022-09-12T13:07:29;18.30;99.90
35920;DHT22;36160;53.370;-6.196;2022-09-12T13:09:56;18.40;99.90
35920;DHT22;36160;53.370;-6.196;2022-09-12T13:12:29;18.20;99.90
35920;DHT22;36160;53.370;-6.196;2022-09-12T13:14:58;18.30;99.90
35920;DHT22;36160;53.370;-6.196;2022-09-12T13:17:37;18.40;99.90
35920;DHT22;36160;53.370;-6.196;2022-09-12T13:22:44;18.50;99.90
35920;DHT22;36160;53.370;-6.196;2022-09-12T13:25:23;18.30;99.90
35920;DHT22;36160;53.370;-6.196;2022-09-12T13:30:33;18.50;99.90
35920;DHT22;36160;53.370;-6.196;2022-09-12T13:33:09;18.60;99.90
35920;DHT22;36160;53.370;-6.196;2022-09-12T13:43:40;18.50;99.90
35920;DHT22;36160;53.370;-6.196;2022-09-12T13:46:08;18.50;99.90
35920;DHT22;36160;53.370;-6.196;2022-09-12T13:48:35;18.50;99.90
35920;DHT22;36160;53.370;-6.196;2022-09-12T13:51:01;18.80;99.90
35920;DHT22;36160;53.370;-6.196;2022-09-12T13:53:43;18.60;99.90
35920;DHT22;36160;53.370;-6.196;2022-09-12T13:56:18;18.60;99.90
35920;DHT22;36160;53.370;-6.196;2022-09-12T14:01:18;18.80;99.90
35920;DHT22;36160;53.370;-6.196;2022-09-12T14:03:55;18.70;99.90
35920;DHT22;36160;53.370;-6.196;2022-09-12T14:06:44;18.60;99.90
35920;DHT22;36160;53.370;-6.196;2022-09-12T14:09:15;18.60;99.90
35920;DHT22;36160;53.370;-6.196;2022-09-12T14:11:45;18.60;99.90
35920;DHT22;36160;53.370;-6.196;2022-09-12T14:14:22;18.50;99.90
35920;DHT22;36160;53.370;-6.196;2022-09-12T14:16:52;18.20;99.90
35920;DHT22;36160;53.370;-6.196;2022-09-12T14:19:21;18.20;99.90
35920;DHT22;36160;53.370;-6.196;2022-09-12T14:21:47;18.10;99.90
35920;DHT22;36160;53.370;-6.196;2022-09-12T14:24:15;18.20;99.90
35920;DHT22;36160;53.370;-6.196;2022-09-12T14:26:42;18.30;99.90
35920;DHT22;36160;53.370;-6.196;2022-09-12T14:29:13;18.30;99.90
35920;DHT22;36160;53.370;-6.196;2022-09-12T14:31:40;18.20;99.90
35920;DHT22;36160;53.370;-6.196;2022-09-12T14:34:13;18.00;99.90
35920;DHT22;36160;53.370;-6.196;2022-09-12T14:42:17;18.10;99.90
35920;DHT22;36160;53.370;-6.196;2022-09-12T14:45:00;18.00;99.90
35920;DHT22;36160;53.370;-6.196;2022-09-12T14:47:32;18.00;99.90
35920;DHT22;36160;53.370;-6.196;2022-09-12T14:50:00;18.00;99.90
35920;DHT22;36160;53.370;-6.196;2022-09-12T14:52:31;17.70;99.90
35920;DHT22;36160;53.370;-6.196;2022-09-12T14:55:01;17.60;99.90
35920;DHT22;36160;53.370;-6.196;2022-09-12T14:57:29;17.50;99.90
35920;DHT22;36160;53.370;-6.196;2022-09-12T15:02:36;17.30;99.90
35920;DHT22;36160;53.370;-6.196;2022-09-12T15:05:13;17.00;99.90
35920;DHT22;36160;53.370;-6.196;2022-09-12T15:10:35;17.20;99.90
35920;DHT22;36160;53.370;-6.196;2022-09-12T15:15:31;17.30;99.90
35920;DHT22;36160;53.370;-6.196;2022-09-12T15:17:57;17.10;99.90
35920;DHT22;36160;53.370;-6.196;2022-09-12T15:20:23;17.10;99.90
35920;DHT22;36160;53.370;-6.196;2022-09-12T15:22:49;17.00;99.90
35920;DHT22;36160;53.370;-6.196;2022-09-12T15:25:16;17.10;99.90
35920;DHT22;36160;53.370;-6.196;2022-09-12T15:27:43;16.80;99.90
35920;DHT22;36160;53.370;-6.196;2022-09-12T15:30:09;17.00;99.90
35920;DHT22;36160;53.370;-6.196;2022-09-12T15:32:39;17.00;99.90
35920;DHT22;36160;53.370;-6.196;2022-09-12T15:35:16;16.60;99.90
35920;DHT22;36160;53.370;-6.196;2022-09-12T15:37:43;16.70;99.90
35920;DHT22;36160;53.370;-6.196;2022-09-12T15:40:10;16.80;99.90
35920;DHT22;36160;53.370;-6.196;2022-09-12T15:42:36;16.80;99.90
35920;DHT22;36160;53.370;-6.196;2022-09-12T15:45:13;16.90;99.90
35920;DHT22;36160;53.370;-6.196;2022-09-12T15:47:42;16.70;99.90
35920;DHT22;36160;53.370;-6.196;2022-09-12T15:50:07;16.70;99.90
35920;DHT22;36160;53.370;-6.196;2022-09-12T15:52:33;16.80;99.90
35920;DHT22;36160;53.370;-6.196;2022-09-12T15:54:59;16.90;99.90
35920;DHT22;36160;53.370;-6.196;2022-09-12T15:57:24;16.60;99.90
35920;DHT22;36160;53.370;-6.196;2022-09-12T15:59:50;16.70;99.90
35920;DHT22;36160;53.370;-6.196;2022-09-12T16:02:15;16.60;99.90
35920;DHT22;36160;53.370;-6.196;2022-09-12T16:04:41;16.60;99.90
35920;DHT22;36160;53.370;-6.196;2022-09-12T16:07:07;16.60;99.90
35920;DHT22;36160;53.370;-6.196;2022-09-12T16:09:32;16.60;99.90
35920;DHT22;36160;53.370;-6.196;2022-09-12T16:11:58;16.50;99.90
35920;DHT22;36160;53.370;-6.196;2022-09-12T16:14:24;16.60;99.90
35920;DHT22;36160;53.370;-6.196;2022-09-12T16:16:53;16.70;99.90
35920;DHT22;36160;53.370;-6.196;2022-09-12T16:19:19;16.60;99.90
35920;DHT22;36160;53.370;-6.196;2022-09-12T16:21:45;16.70;99.90
35920;DHT22;36160;53.370;-6.196;2022-09-12T16:24:11;16.60;99.90
35920;DHT22;36160;53.370;-6.196;2022-09-12T16:26:37;16.60;99.90
35920;DHT22;36160;53.370;-6.196;2022-09-12T16:29:02;16.80;99.90
35920;DHT22;36160;53.370;-6.196;2022-09-12T16:31:28;16.70;99.90
35920;DHT22;36160;53.370;-6.196;2022-09-12T16:33:54;16.60;99.90
35920;DHT22;36160;53.370;-6.196;2022-09-12T16:36:21;16.60;99.90
35920;DHT22;36160;53.370;-6.196;2022-09-12T16:38:48;16.70;99.90
35920;DHT22;36160;53.370;-6.196;2022-09-12T16:41:16;16.70;99.90
35920;DHT22;36160;53.370;-6.196;2022-09-12T16:43:42;16.70;99.90
35920;DHT22;36160;53.370;-6.196;2022-09-12T16:48:44;16.80;99.90
35920;DHT22;36160;53.370;-6.196;2022-09-12T16:51:10;16.70;99.90
35920;DHT22;36160;53.370;-6.196;2022-09-12T16:53:37;16.80;99.90
35920;DHT22;36160;53.370;-6.196;2022-09-12T16:56:04;16.90;99.90
35920;DHT22;36160;53.370;-6.196;2022-09-12T16:58:38;16.60;99.90
35920;DHT22;36160;53.370;-6.196;2022-09-12T17:01:15;16.70;99.90
35920;DHT22;36160;53.370;-6.196;2022-09-12T17:03:42;16.80;99.90
35920;DHT22;36160;53.370;-6.196;2022-09-12T17:06:11;16.70;99.90
35920;DHT22;36160;53.370;-6.196;2022-09-12T17:08:40;17.00;99.90
35920;DHT22;36160;53.370;-6.196;2022-09-12T17:11:08;17.00;99.90
35920;DHT22;36160;53.370;-6.196;2022-09-12T17:13:34;17.00;99.90
35920;DHT22;36160;53.370;-6.196;2022-09-12T17:16:07;17.10;99.90
35920;DHT22;36160;53.370;-6.196;2022-09-12T17:18:35;17.10;99.90
35920;DHT22;36160;53.370;-6.196;2022-09-12T17:21:00;17.20;99.90
35920;DHT22;36160;53.370;-6.196;2022-09-12T17:23:26;17.10;99.90
35920;DHT22;36160;53.370;-6.196;2022-09-12T17:25:52;17.10;99.90
35920;DHT22;36160;53.370;-6.196;2022-09-12T17:28:18;17.10;99.90
35920;DHT22;36160;53.370;-6.196;2022-09-12T17:30:44;17.10;99.90
35920;DHT22;36160;53.370;-6.196;2022-09-12T17:33:10;17.20;99.90
35920;DHT22;36160;53.370;-6.196;2022-09-12T17:35:37;17.10;99.90
35920;DHT22;36160;53.370;-6.196;2022-09-12T17:38:04;17.10;99.90
35920;DHT22;36160;53.370;-6.196;2022-09-12T17:40:30;17.00;99.90
35920;DHT22;36160;53.370;-6.196;2022-09-12T17:42:59;17.10;99.90
35920;DHT22;36160;53.370;-6.196;2022-09-12T17:45:26;17.00;99.90
35920;DHT22;36160;53.370;-6.196;2022-09-12T17:47:52;17.10;99.90
35920;DHT22;36160;53.370;-6.196;2022-09-12T17:50:18;17.20;99.90
35920;DHT22;36160;53.370;-6.196;2022-09-12T17:52:45;17.10;99.90
35920;DHT22;36160;53.370;-6.196;2022-09-12T17:55:12;17.10;99.90
35920;DHT22;36160;53.370;-6.196;2022-09-12T17:57:40;17.00;99.90
35920;DHT22;36160;53.370;-6.196;2022-09-12T18:00:06;17.10;99.90
35920;DHT22;36160;53.370;-6.196;2022-09-12T18:02:33;17.10;99.90
35920;DHT22;36160;53.370;-6.196;2022-09-12T18:05:00;17.00;99.90